sensor_id;sensor_type;location;lat;lon;timestamp;temperature;humidity
40289;DHT22;28991;52.028;5.526;2023-08-06T00:00:05;22.10;61.70
40289;DHT22;28991;52.028;5.526;2023-08-06T00:02:30;22.10;61.80
40289;DHT22;28991;52.028;5.526;2023-08-06T00:04:56;22.10;61.80
40289;DHT22;28991;52.028;5.526;2023-08-06T00:07:22;22.10;62.30
40289;DHT22;28991;52.028;5.526;2023-08-06T00:09:48;22.10;61.80
40289;DHT22;28991;52.028;5.526;2023-08-06T00:12:13;22.10;61.80
40289;DHT22;28991;52.028;5.526;2023-08-06T00:14:39;22.10;61.80
40289;DHT22;28991;52.028;5.526;2023-08-06T00:17:04;22.10;61.80
40289;DHT22;28991;52.028;5.526;2023-08-06T00:19:31;22.10;61.80
40289;DHT22;28991;52.028;5.526;2023-08-06T00:21:57;22.00;61.80
40289;DHT22;28991;52.028;5.526;2023-08-06T00:24:22;22.10;61.80
40289;DHT22;28991;52.028;5.526;2023-08-06T00:26:48;22.10;61.80
40289;DHT22;28991;52.028;5.526;2023-08-06T00:29:13;22.10;61.80
40289;DHT22;28991;52.028;5.526;2023-08-06T00:31:39;22.10;61.80
40289;DHT22;28991;52.028;5.526;2023-08-06T00:34:05;22.00;61.80
40289;DHT22;28991;52.028;5.526;2023-08-06T00:36:30;22.10;61.80
40289;DHT22;28991;52.028;5.526;2023-08-06T00:38:56;22.00;61.80
40289;DHT22;28991;52.028;5.526;2023-08-06T00:41:22;22.10;61.90
40289;DHT22;28991;52.028;5.526;2023-08-06T00:43:47;22.00;61.80
40289;DHT22;28991;52.028;5.526;2023-08-06T00:46:13;22.00;61.90
40289;DHT22;28991;52.028;5.526;2023-08-06T00:48:40;22.10;61.90
40289;DHT22;28991;52.028;5.526;2023-08-06T00:51:06;22.10;61.90
40289;DHT22;28991;52.028;5.526;2023-08-06T00:53:32;22.00;61.80
40289;DHT22;28991;52.028;5.526;2023-08-06T00:55:58;22.00;61.80
40289;DHT22;28991;52.028;5.526;2023-08-06T00:58:24;22.00;61.80
40289;DHT22;28991;52.028;5.526;2023-08-06T01:00:50;22.10;61.90
40289;DHT22;28991;52.028;5.526;2023-08-06T01:03:15;22.00;61.90
40289;DHT22;28991;52.028;5.526;2023-08-06T01:05:41;22.00;61.90
40289;DHT22;28991;52.028;5.526;2023-08-06T01:08:21;22.00;61.90
40289;DHT22;28991;52.028;5.526;2023-08-06T01:10:51;22.00;61.90
40289;DHT22;28991;52.028;5.526;2023-08-06T01:13:42;22.10;61.90
40289;DHT22;28991;52.028;5.526;2023-08-06T01:16:09;22.00;61.90
40289;DHT22;28991;52.028;5.526;2023-08-06T01:18:35;22.10;61.90
40289;DHT22;28991;52.028;5.526;2023-08-06T01:21:02;22.00;61.90
40289;DHT22;28991;52.028;5.526;2023-08-06T01:23:28;22.00;61.90
40289;DHT22;28991;52.028;5.526;2023-08-06T01:31:15;22.00;61.90
40289;DHT22;28991;52.028;5.526;2023-08-06T01:33:44;22.00;61.90
40289;DHT22;28991;52.028;5.526;2023-08-06T01:36:10;21.90;61.90
40289;DHT22;28991;52.028;5.526;2023-08-06T01:38:36;22.00;61.90
40289;DHT22;28991;52.028;5.526;2023-08-06T01:41:02;22.00;61.90
40289;DHT22;28991;52.028;5.526;2023-08-06T01:43:27;22.00;61.90
40289;DHT22;28991;52.028;5.526;2023-08-06T01:45:53;22.50;62.20
40289;DHT22;28991;52.028;5.526;2023-08-06T01:48:18;21.90;61.90
40289;DHT22;28991;52.028;5.526;2023-08-06T01:50:44;22.00;61.90
40289;DHT22;28991;52.028;5.526;2023-08-06T01:53:10;22.00;61.90
40289;DHT22;28991;52.028;5.526;2023-08-06T01:55:35;22.60;62.30
40289;DHT22;28991;52.028;5.526;2023-08-06T01:58:01;22.00;62.00
40289;DHT22;28991;52.028;5.526;2023-08-06T02:00:26;22.20;62.10
40289;DHT22;28991;52.028;5.526;2023-08-06T02:02:54;22.00;62.00
40289;DHT22;28991;52.028;5.526;2023-08-06T02:05:19;22.00;62.00
40289;DHT22;28991;52.028;5.526;2023-08-06T02:07:46;22.00;62.00
40289;DHT22;28991;52.028;5.526;2023-08-06T02:10:11;21.90;61.90
40289;DHT22;28991;52.028;5.526;2023-08-06T02:12:37;22.00;62.00
40289;DHT22;28991;52.028;5.526;2023-08-06T02:15:03;22.00;62.00
40289;DHT22;28991;52.028;5.526;2023-08-06T02:17:29;22.00;62.00
40289;DHT22;28991;52.028;5.526;2023-08-06T02:19:55;22.20;62.10
40289;DHT22;28991;52.028;5.526;2023-08-06T02:22:20;22.00;62.00
40289;DHT22;28991;52.028;5.526;2023-08-06T02:24:46;21.90;62.00
40289;DHT22;28991;52.028;5.526;2023-08-06T02:27:11;22.00;62.00
40289;DHT22;28991;52.028;5.526;2023-08-06T02:29:38;22.00;62.00
40289;DHT22;28991;52.028;5.526;2023-08-06T02:32:05;22.00;62.00
40289;DHT22;28991;52.028;5.526;2023-08-06T02:34:31;22.00;62.00
40289;DHT22;28991;52.028;5.526;2023-08-06T02:36:57;22.00;62.10
40289;DHT22;28991;52.028;5.526;2023-08-06T02:39:22;22.00;62.00
40289;DHT22;28991;52.028;5.526;2023-08-06T02:41:48;22.00;62.10
40289;DHT22;28991;52.028;5.526;2023-08-06T02:44:13;22.00;62.10
40289;DHT22;28991;52.028;5.526;2023-08-06T02:46:39;22.00;62.10
40289;DHT22;28991;52.028;5.526;2023-08-06T02:49:06;22.00;62.10
40289;DHT22;28991;52.028;5.526;2023-08-06T02:51:31;21.90;62.00
40289;DHT22;28991;52.028;5.526;2023-08-06T02:53:57;21.90;62.00
40289;DHT22;28991;52.028;5.526;2023-08-06T02:56:23;22.00;62.10
40289;DHT22;28991;52.028;5.526;2023-08-06T02:58:48;22.00;62.10
40289;DHT22;28991;52.028;5.526;2023-08-06T03:01:14;21.80;62.00
40289;DHT22;28991;52.028;5.526;2023-08-06T03:03:39;21.90;62.00
40289;DHT22;28991;52.028;5.526;2023-08-06T03:06:05;21.90;62.10
40289;DHT22;28991;52.028;5.526;2023-08-06T03:08:31;22.00;62.10
40289;DHT22;28991;52.028;5.526;2023-08-06T03:10:56;22.00;62.10
40289;DHT22;28991;52.028;5.526;2023-08-06T03:13:22;21.90;62.10
40289;DHT22;28991;52.028;5.526;2023-08-06T03:15:58;22.00;62.10
40289;DHT22;28991;52.028;5.526;2023-08-06T03:18:24;21.90;62.10
40289;DHT22;28991;52.028;5.526;2023-08-06T03:20:51;21.90;62.10
40289;DHT22;28991;52.028;5.526;2023-08-06T03:23:17;21.90;62.10
40289;DHT22;28991;52.028;5.526;2023-08-06T03:25:44;22.00;62.10
40289;DHT22;28991;52.028;5.526;2023-08-06T03:28:10;22.00;62.10
40289;DHT22;28991;52.028;5.526;2023-08-06T03:30:35;22.00;62.10
40289;DHT22;28991;52.028;5.526;2023-08-06T03:33:01;22.00;62.10
40289;DHT22;28991;52.028;5.526;2023-08-06T03:35:26;22.00;62.10
40289;DHT22;28991;52.028;5.526;2023-08-06T03:37:52;21.90;62.10
40289;DHT22;28991;52.028;5.526;2023-08-06T03:40:18;21.90;62.10
40289;DHT22;28991;52.028;5.526;2023-08-06T03:42:43;21.90;62.10
40289;DHT22;28991;52.028;5.526;2023-08-06T03:45:09;22.10;62.20
40289;DHT22;28991;52.028;5.526;2023-08-06T03:47:34;21.90;62.10
40289;DHT22;28991;52.028;5.526;2023-08-06T03:50:00;21.90;62.10
40289;DHT22;28991;52.028;5.526;2023-08-06T03:52:26;21.90;62.10
40289;DHT22;28991;52.028;5.526;2023-08-06T03:54:51;21.90;62.10
40289;DHT22;28991;52.028;5.526;2023-08-06T03:57:17;21.90;62.10
40289;DHT22;28991;52.028;5.526;2023-08-06T03:59:42;21.80;62.10
40289;DHT22;28991;52.028;5.526;2023-08-06T04:02:08;21.90;62.10
40289;DHT22;28991;52.028;5.526;2023-08-06T04:04:34;21.90;62.10
40289;DHT22;28991;52.028;5.526;2023-08-06T04:06:59;21.90;62.20
40289;DHT22;28991;52.028;5.526;2023-08-06T04:09:25;21.90;62.20
40289;DHT22;28991;52.028;5.526;2023-08-06T04:11:50;21.90;62.20
40289;DHT22;28991;52.028;5.526;2023-08-06T04:14:16;21.90;62.10
40289;DHT22;28991;52.028;5.526;2023-08-06T04:16:41;22.20;62.40
40289;DHT22;28991;52.028;5.526;2023-08-06T04:19:07;21.90;62.20
40289;DHT22;28991;52.028;5.526;2023-08-06T04:21:32;21.90;62.20
40289;DHT22;28991;52.028;5.526;2023-08-06T04:24:00;21.90;62.20
40289;DHT22;28991;52.028;5.526;2023-08-06T04:26:26;21.90;62.20
40289;DHT22;28991;52.028;5.526;2023-08-06T04:28:51;21.90;62.20
40289;DHT22;28991;52.028;5.526;2023-08-06T04:31:17;21.90;62.20
40289;DHT22;28991;52.028;5.526;2023-08-06T04:33:42;21.90;62.20
40289;DHT22;28991;52.028;5.526;2023-08-06T04:36:08;21.90;62.20
40289;DHT22;28991;52.028;5.526;2023-08-06T04:38:33;21.90;62.20
40289;DHT22;28991;52.028;5.526;2023-08-06T04:40:59;21.90;62.20
40289;DHT22;28991;52.028;5.526;2023-08-06T04:43:25;21.90;62.30
40289;DHT22;28991;52.028;5.526;2023-08-06T04:45:51;22.00;62.30
40289;DHT22;28991;52.028;5.526;2023-08-06T04:48:18;21.90;62.20
40289;DHT22;28991;52.028;5.526;2023-08-06T04:50:48;22.00;62.30
40289;DHT22;28991;52.028;5.526;2023-08-06T04:53:14;21.90;62.30
40289;DHT22;28991;52.028;5.526;2023-08-06T04:55:40;21.90;62.30
40289;DHT22;28991;52.028;5.526;2023-08-06T04:58:06;21.90;62.20
40289;DHT22;28991;52.028;5.526;2023-08-06T05:00:31;21.90;62.30
40289;DHT22;28991;52.028;5.526;2023-08-06T05:02:59;22.30;62.50
40289;DHT22;28991;52.028;5.526;2023-08-06T05:05:25;21.90;62.30
40289;DHT22;28991;52.028;5.526;2023-08-06T05:07:51;21.90;62.30
40289;DHT22;28991;52.028;5.526;2023-08-06T05:10:16;21.90;62.30
40289;DHT22;28991;52.028;5.526;2023-08-06T05:12:42;21.90;62.30
40289;DHT22;28991;52.028;5.526;2023-08-06T05:15:08;21.90;62.30
40289;DHT22;28991;52.028;5.526;2023-08-06T05:17:34;21.90;62.30
40289;DHT22;28991;52.028;5.526;2023-08-06T05:19:59;21.90;62.30
40289;DHT22;28991;52.028;5.526;2023-08-06T05:22:25;21.90;62.30
40289;DHT22;28991;52.028;5.526;2023-08-06T05:24:51;21.90;62.30
40289;DHT22;28991;52.028;5.526;2023-08-06T05:27:16;21.90;62.30
40289;DHT22;28991;52.028;5.526;2023-08-06T05:29:44;21.90;62.30
40289;DHT22;28991;52.028;5.526;2023-08-06T05:32:10;21.90;62.30
40289;DHT22;28991;52.028;5.526;2023-08-06T05:34:35;21.90;62.30
40289;DHT22;28991;52.028;5.526;2023-08-06T05:37:01;21.90;62.30
40289;DHT22;28991;52.028;5.526;2023-08-06T05:39:27;21.90;62.30
40289;DHT22;28991;52.028;5.526;2023-08-06T05:41:52;21.90;62.30
40289;DHT22;28991;52.028;5.526;2023-08-06T05:44:18;21.90;62.30
40289;DHT22;28991;52.028;5.526;2023-08-06T05:46:43;21.90;62.30
40289;DHT22;28991;52.028;5.526;2023-08-06T05:49:09;21.80;62.30
40289;DHT22;28991;52.028;5.526;2023-08-06T05:51:34;21.90;62.30
40289;DHT22;28991;52.028;5.526;2023-08-06T05:54:00;21.80;62.20
40289;DHT22;28991;52.028;5.526;2023-08-06T05:56:25;21.90;62.30
40289;DHT22;28991;52.028;5.526;2023-08-06T05:58:51;21.90;62.30
40289;DHT22;28991;52.028;5.526;2023-08-06T06:01:18;21.90;62.30
40289;DHT22;28991;52.028;5.526;2023-08-06T06:03:44;21.80;62.30
40289;DHT22;28991;52.028;5.526;2023-08-06T06:06:10;21.90;62.30
40289;DHT22;28991;52.028;5.526;2023-08-06T06:08:35;21.90;62.30
40289;DHT22;28991;52.028;5.526;2023-08-06T06:11:01;21.90;62.30
40289;DHT22;28991;52.028;5.526;2023-08-06T06:13:26;21.90;62.30
40289;DHT22;28991;52.028;5.526;2023-08-06T06:15:55;21.90;62.30
40289;DHT22;28991;52.028;5.526;2023-08-06T06:18:22;21.90;62.30
40289;DHT22;28991;52.028;5.526;2023-08-06T06:20:47;21.90;62.30
40289;DHT22;28991;52.028;5.526;2023-08-06T06:23:13;21.90;62.30
40289;DHT22;28991;52.028;5.526;2023-08-06T06:25:57;21.90;62.30
40289;DHT22;28991;52.028;5.526;2023-08-06T06:28:23;21.90;62.40
40289;DHT22;28991;52.028;5.526;2023-08-06T06:30:48;21.90;62.30
40289;DHT22;28991;52.028;5.526;2023-08-06T06:33:14;21.90;62.30
40289;DHT22;28991;52.028;5.526;2023-08-06T06:35:39;21.90;62.30
40289;DHT22;28991;52.028;5.526;2023-08-06T06:38:05;21.90;62.30
40289;DHT22;28991;52.028;5.526;2023-08-06T06:40:30;21.90;62.40
40289;DHT22;28991;52.028;5.526;2023-08-06T06:42:56;21.90;62.40
40289;DHT22;28991;52.028;5.526;2023-08-06T06:45:22;21.90;62.60
40289;DHT22;28991;52.028;5.526;2023-08-06T06:47:47;21.90;62.80
40289;DHT22;28991;52.028;5.526;2023-08-06T06:50:13;21.90;62.90
40289;DHT22;28991;52.028;5.526;2023-08-06T06:52:38;21.80;62.90
40289;DHT22;28991;52.028;5.526;2023-08-06T06:55:04;21.90;63.20
40289;DHT22;28991;52.028;5.526;2023-08-06T06:57:30;21.80;63.20
40289;DHT22;28991;52.028;5.526;2023-08-06T06:59:55;21.80;63.40
40289;DHT22;28991;52.028;5.526;2023-08-06T07:02:21;21.80;63.40
40289;DHT22;28991;52.028;5.526;2023-08-06T07:04:47;21.80;63.50
40289;DHT22;28991;52.028;5.526;2023-08-06T07:07:12;21.80;63.60
40289;DHT22;28991;52.028;5.526;2023-08-06T07:09:38;21.80;63.70
40289;DHT22;28991;52.028;5.526;2023-08-06T07:12:04;21.80;63.70
40289;DHT22;28991;52.028;5.526;2023-08-06T07:14:29;21.80;63.80
40289;DHT22;28991;52.028;5.526;2023-08-06T07:16:55;21.80;63.80
40289;DHT22;28991;52.028;5.526;2023-08-06T07:19:21;21.80;63.90
40289;DHT22;28991;52.028;5.526;2023-08-06T07:21:46;21.80;63.90
40289;DHT22;28991;52.028;5.526;2023-08-06T07:24:12;21.80;64.00
40289;DHT22;28991;52.028;5.526;2023-08-06T07:26:38;21.80;64.00
40289;DHT22;28991;52.028;5.526;2023-08-06T07:29:03;21.80;64.10
40289;DHT22;28991;52.028;5.526;2023-08-06T07:31:29;21.60;64.20
40289;DHT22;28991;52.028;5.526;2023-08-06T07:33:55;21.80;64.30
40289;DHT22;28991;52.028;5.526;2023-08-06T07:36:20;21.80;64.50
40289;DHT22;28991;52.028;5.526;2023-08-06T07:38:46;21.70;64.60
40289;DHT22;28991;52.028;5.526;2023-08-06T07:41:14;21.70;64.70
40289;DHT22;28991;52.028;5.526;2023-08-06T07:43:39;21.70;64.80
40289;DHT22;28991;52.028;5.526;2023-08-06T07:46:05;21.70;64.90
40289;DHT22;28991;52.028;5.526;2023-08-06T07:48:31;21.70;65.00
40289;DHT22;28991;52.028;5.526;2023-08-06T07:50:57;21.70;65.10
40289;DHT22;28991;52.028;5.526;2023-08-06T07:53:23;21.60;65.10
40289;DHT22;28991;52.028;5.526;2023-08-06T07:55:52;21.60;65.30
40289;DHT22;28991;52.028;5.526;2023-08-06T07:58:19;21.60;65.40
40289;DHT22;28991;52.028;5.526;2023-08-06T08:00:45;21.60;65.40
40289;DHT22;28991;52.028;5.526;2023-08-06T08:03:15;21.60;65.60
40289;DHT22;28991;52.028;5.526;2023-08-06T08:05:42;21.60;65.60
40289;DHT22;28991;52.028;5.526;2023-08-06T08:08:08;21.50;65.60
40289;DHT22;28991;52.028;5.526;2023-08-06T08:10:34;21.60;65.80
40289;DHT22;28991;52.028;5.526;2023-08-06T08:13:03;21.50;65.80
40289;DHT22;28991;52.028;5.526;2023-08-06T08:15:30;21.50;65.90
40289;DHT22;28991;52.028;5.526;2023-08-06T08:17:56;21.50;66.10
40289;DHT22;28991;52.028;5.526;2023-08-06T08:20:22;21.50;66.10
40289;DHT22;28991;52.028;5.526;2023-08-06T08:22:47;21.50;66.20
40289;DHT22;28991;52.028;5.526;2023-08-06T08:25:14;21.50;66.30
40289;DHT22;28991;52.028;5.526;2023-08-06T08:27:39;21.50;66.40
40289;DHT22;28991;52.028;5.526;2023-08-06T08:30:05;21.50;66.40
40289;DHT22;28991;52.028;5.526;2023-08-06T08:32:31;21.40;66.30
40289;DHT22;28991;52.028;5.526;2023-08-06T08:34:57;21.50;66.40
40289;DHT22;28991;52.028;5.526;2023-08-06T08:37:23;21.40;66.30
40289;DHT22;28991;52.028;5.526;2023-08-06T08:39:49;21.40;66.30
40289;DHT22;28991;52.028;5.526;2023-08-06T08:42:15;21.40;66.30
40289;DHT22;28991;52.028;5.526;2023-08-06T08:44:42;21.40;66.10
40289;DHT22;28991;52.028;5.526;2023-08-06T08:47:08;21.40;66.10
40289;DHT22;28991;52.028;5.526;2023-08-06T08:49:36;21.30;66.10
40289;DHT22;28991;52.028;5.526;2023-08-06T08:52:02;21.40;66.10
40289;DHT22;28991;52.028;5.526;2023-08-06T08:54:28;21.30;66.00
40289;DHT22;28991;52.028;5.526;2023-08-06T08:56:56;21.40;66.00
40289;DHT22;28991;52.028;5.526;2023-08-06T08:59:23;21.40;65.90
40289;DHT22;28991;52.028;5.526;2023-08-06T09:01:49;21.40;65.90
40289;DHT22;28991;52.028;5.526;2023-08-06T09:04:18;21.30;65.70
40289;DHT22;28991;52.028;5.526;2023-08-06T09:06:46;21.30;65.70
40289;DHT22;28991;52.028;5.526;2023-08-06T09:09:17;21.30;65.60
40289;DHT22;28991;52.028;5.526;2023-08-06T09:11:47;21.30;65.60
40289;DHT22;28991;52.028;5.526;2023-08-06T09:14:14;21.40;65.60
40289;DHT22;28991;52.028;5.526;2023-08-06T09:16:40;21.40;65.60
40289;DHT22;28991;52.028;5.526;2023-08-06T09:19:13;21.30;65.60
40289;DHT22;28991;52.028;5.526;2023-08-06T09:21:41;21.20;66.00
40289;DHT22;28991;52.028;5.526;2023-08-06T09:24:11;21.30;65.50
40289;DHT22;28991;52.028;5.526;2023-08-06T09:26:41;21.30;65.50
40289;DHT22;28991;52.028;5.526;2023-08-06T09:29:08;21.30;65.50
40289;DHT22;28991;52.028;5.526;2023-08-06T09:31:43;21.20;65.40
40289;DHT22;28991;52.028;5.526;2023-08-06T09:34:22;21.30;65.40
40289;DHT22;28991;52.028;5.526;2023-08-06T09:36:49;21.30;65.40
40289;DHT22;28991;52.028;5.526;2023-08-06T09:39:28;21.30;65.40
40289;DHT22;28991;52.028;5.526;2023-08-06T09:41:58;21.30;65.30
40289;DHT22;28991;52.028;5.526;2023-08-06T09:44:26;21.30;65.40
40289;DHT22;28991;52.028;5.526;2023-08-06T09:46:57;21.30;65.40
40289;DHT22;28991;52.028;5.526;2023-08-06T09:51:58;21.30;65.30
40289;DHT22;28991;52.028;5.526;2023-08-06T09:54:25;21.30;65.30
40289;DHT22;28991;52.028;5.526;2023-08-06T09:56:53;21.30;65.40
40289;DHT22;28991;52.028;5.526;2023-08-06T09:59:19;21.30;65.40
40289;DHT22;28991;52.028;5.526;2023-08-06T10:01:45;21.30;65.50
40289;DHT22;28991;52.028;5.526;2023-08-06T10:04:13;21.30;65.50
40289;DHT22;28991;52.028;5.526;2023-08-06T10:06:42;21.20;65.50
40289;DHT22;28991;52.028;5.526;2023-08-06T10:09:08;21.20;65.50
40289;DHT22;28991;52.028;5.526;2023-08-06T10:11:36;21.20;65.60
40289;DHT22;28991;52.028;5.526;2023-08-06T10:14:24;21.20;65.60
40289;DHT22;28991;52.028;5.526;2023-08-06T10:16:51;21.20;65.70
40289;DHT22;28991;52.028;5.526;2023-08-06T10:19:18;21.20;65.70
40289;DHT22;28991;52.028;5.526;2023-08-06T10:22:19;21.20;65.70
40289;DHT22;28991;52.028;5.526;2023-08-06T10:24:51;21.30;65.80
40289;DHT22;28991;52.028;5.526;2023-08-06T10:27:39;21.20;65.80
40289;DHT22;28991;52.028;5.526;2023-08-06T10:30:27;21.20;65.70
40289;DHT22;28991;52.028;5.526;2023-08-06T10:32:55;21.20;65.80
40289;DHT22;28991;52.028;5.526;2023-08-06T10:35:44;21.10;65.80
40289;DHT22;28991;52.028;5.526;2023-08-06T10:38:15;21.20;66.50
40289;DHT22;28991;52.028;5.526;2023-08-06T10:45:51;21.20;65.90
40289;DHT22;28991;52.028;5.526;2023-08-06T10:48:29;21.20;65.90
40289;DHT22;28991;52.028;5.526;2023-08-06T10:50:56;21.20;65.90
40289;DHT22;28991;52.028;5.526;2023-08-06T10:53:22;21.20;65.90
40289;DHT22;28991;52.028;5.526;2023-08-06T10:55:47;21.20;65.90
40289;DHT22;28991;52.028;5.526;2023-08-06T10:58:15;21.10;65.80
40289;DHT22;28991;52.028;5.526;2023-08-06T11:00:42;21.20;65.90
40289;DHT22;28991;52.028;5.526;2023-08-06T11:03:08;21.20;65.80
40289;DHT22;28991;52.028;5.526;2023-08-06T11:05:35;21.10;65.60
40289;DHT22;28991;52.028;5.526;2023-08-06T11:08:00;21.60;65.90
40289;DHT22;28991;52.028;5.526;2023-08-06T11:10:26;21.10;65.50
40289;DHT22;28991;52.028;5.526;2023-08-06T11:12:52;21.20;65.50
40289;DHT22;28991;52.028;5.526;2023-08-06T11:15:19;21.20;65.40
40289;DHT22;28991;52.028;5.526;2023-08-06T11:17:45;21.10;65.20
40289;DHT22;28991;52.028;5.526;2023-08-06T11:20:11;21.20;65.20
40289;DHT22;28991;52.028;5.526;2023-08-06T11:22:37;21.30;65.20
40289;DHT22;28991;52.028;5.526;2023-08-06T11:25:04;21.30;65.10
40289;DHT22;28991;52.028;5.526;2023-08-06T11:27:30;21.30;65.10
40289;DHT22;28991;52.028;5.526;2023-08-06T11:29:56;21.30;65.00
40289;DHT22;28991;52.028;5.526;2023-08-06T11:32:21;21.30;65.00
40289;DHT22;28991;52.028;5.526;2023-08-06T11:34:47;21.30;64.90
40289;DHT22;28991;52.028;5.526;2023-08-06T11:37:13;21.40;64.90
40289;DHT22;28991;52.028;5.526;2023-08-06T11:39:38;21.30;64.80
40289;DHT22;28991;52.028;5.526;2023-08-06T11:42:09;21.40;64.80
40289;DHT22;28991;52.028;5.526;2023-08-06T11:44:36;21.40;64.80
40289;DHT22;28991;52.028;5.526;2023-08-06T11:47:05;21.40;64.70
40289;DHT22;28991;52.028;5.526;2023-08-06T11:52:17;21.40;64.70
40289;DHT22;28991;52.028;5.526;2023-08-06T11:54:45;21.40;64.60
40289;DHT22;28991;52.028;5.526;2023-08-06T11:57:11;21.40;64.60
40289;DHT22;28991;52.028;5.526;2023-08-06T11:59:40;21.40;64.60
40289;DHT22;28991;52.028;5.526;2023-08-06T12:02:08;21.60;64.70
40289;DHT22;28991;52.028;5.526;2023-08-06T12:07:54;21.40;64.50
40289;DHT22;28991;52.028;5.526;2023-08-06T12:10:21;21.60;64.60
40289;DHT22;28991;52.028;5.526;2023-08-06T12:12:47;21.50;64.50
40289;DHT22;28991;52.028;5.526;2023-08-06T12:15:14;21.40;64.50
40289;DHT22;28991;52.028;5.526;2023-08-06T12:17:40;21.40;64.40
40289;DHT22;28991;52.028;5.526;2023-08-06T12:20:07;21.50;64.50
40289;DHT22;28991;52.028;5.526;2023-08-06T12:22:33;21.50;64.50
40289;DHT22;28991;52.028;5.526;2023-08-06T12:27:33;21.50;64.40
40289;DHT22;28991;52.028;5.526;2023-08-06T12:29:59;22.10;64.70
40289;DHT22;28991;52.028;5.526;2023-08-06T12:32:24;21.50;64.40
40289;DHT22;28991;52.028;5.526;2023-08-06T12:34:50;21.50;64.40
40289;DHT22;28991;52.028;5.526;2023-08-06T12:37:16;21.50;64.40
40289;DHT22;28991;52.028;5.526;2023-08-06T12:39:41;21.50;64.30
40289;DHT22;28991;52.028;5.526;2023-08-06T12:42:07;21.90;64.50
40289;DHT22;28991;52.028;5.526;2023-08-06T12:44:32;21.50;64.30
40289;DHT22;28991;52.028;5.526;2023-08-06T12:46:58;21.50;64.30
40289;DHT22;28991;52.028;5.526;2023-08-06T12:49:25;21.40;64.20
40289;DHT22;28991;52.028;5.526;2023-08-06T12:51:52;21.50;64.20
40289;DHT22;28991;52.028;5.526;2023-08-06T12:54:18;21.50;64.20
40289;DHT22;28991;52.028;5.526;2023-08-06T12:56:45;21.50;64.20
40289;DHT22;28991;52.028;5.526;2023-08-06T12:59:11;21.50;64.20
40289;DHT22;28991;52.028;5.526;2023-08-06T13:01:39;21.50;64.20
40289;DHT22;28991;52.028;5.526;2023-08-06T13:04:05;21.50;64.20
40289;DHT22;28991;52.028;5.526;2023-08-06T13:06:31;21.50;64.20
40289;DHT22;28991;52.028;5.526;2023-08-06T13:09:01;21.50;64.20
40289;DHT22;28991;52.028;5.526;2023-08-06T13:11:27;21.50;64.10
40289;DHT22;28991;52.028;5.526;2023-08-06T13:13:52;22.30;64.60
40289;DHT22;28991;52.028;5.526;2023-08-06T13:16:18;21.60;64.20
40289;DHT22;28991;52.028;5.526;2023-08-06T13:18:43;21.50;64.10
40289;DHT22;28991;52.028;5.526;2023-08-06T13:21:09;21.50;64.10
40289;DHT22;28991;52.028;5.526;2023-08-06T13:23:35;21.40;64.00
40289;DHT22;28991;52.028;5.526;2023-08-06T13:26:00;21.50;64.10
40289;DHT22;28991;52.028;5.526;2023-08-06T13:28:26;21.40;64.00
40289;DHT22;28991;52.028;5.526;2023-08-06T13:30:51;21.50;64.10
40289;DHT22;28991;52.028;5.526;2023-08-06T13:33:17;21.50;64.10
40289;DHT22;28991;52.028;5.526;2023-08-06T13:35:43;21.50;64.00
40289;DHT22;28991;52.028;5.526;2023-08-06T13:38:08;21.50;64.00
40289;DHT22;28991;52.028;5.526;2023-08-06T13:40:35;21.50;64.00
40289;DHT22;28991;52.028;5.526;2023-08-06T13:43:00;21.50;64.00
40289;DHT22;28991;52.028;5.526;2023-08-06T13:45:26;21.50;64.00
40289;DHT22;28991;52.028;5.526;2023-08-06T13:47:52;21.50;64.00
40289;DHT22;28991;52.028;5.526;2023-08-06T13:50:17;21.50;63.90
40289;DHT22;28991;52.028;5.526;2023-08-06T13:52:44;21.60;64.00
40289;DHT22;28991;52.028;5.526;2023-08-06T13:55:10;21.60;64.00
40289;DHT22;28991;52.028;5.526;2023-08-06T13:57:35;21.60;64.00
40289;DHT22;28991;52.028;5.526;2023-08-06T14:00:01;21.60;63.90
40289;DHT22;28991;52.028;5.526;2023-08-06T14:02:27;21.60;63.90
40289;DHT22;28991;52.028;5.526;2023-08-06T14:04:53;21.60;63.90
40289;DHT22;28991;52.028;5.526;2023-08-06T14:07:19;21.60;63.90
40289;DHT22;28991;52.028;5.526;2023-08-06T14:09:45;21.60;63.90
40289;DHT22;28991;52.028;5.526;2023-08-06T14:12:12;21.60;63.90
40289;DHT22;28991;52.028;5.526;2023-08-06T14:14:38;21.60;63.90
40289;DHT22;28991;52.028;5.526;2023-08-06T14:17:03;21.60;63.90
40289;DHT22;28991;52.028;5.526;2023-08-06T14:19:29;21.60;63.80
40289;DHT22;28991;52.028;5.526;2023-08-06T14:21:55;21.60;63.80
40289;DHT22;28991;52.028;5.526;2023-08-06T14:24:21;22.20;64.20
40289;DHT22;28991;52.028;5.526;2023-08-06T14:26:46;21.60;63.80
40289;DHT22;28991;52.028;5.526;2023-08-06T14:29:12;21.60;63.80
40289;DHT22;28991;52.028;5.526;2023-08-06T14:31:39;21.60;63.80
40289;DHT22;28991;52.028;5.526;2023-08-06T14:34:04;21.60;63.80
40289;DHT22;28991;52.028;5.526;2023-08-06T14:36:30;21.60;63.80
40289;DHT22;28991;52.028;5.526;2023-08-06T14:38:56;21.60;63.80
40289;DHT22;28991;52.028;5.526;2023-08-06T14:41:21;21.80;63.90
40289;DHT22;28991;52.028;5.526;2023-08-06T14:43:47;21.60;63.70
40289;DHT22;28991;52.028;5.526;2023-08-06T14:46:12;21.60;63.70
40289;DHT22;28991;52.028;5.526;2023-08-06T14:48:38;22.10;64.00
40289;DHT22;28991;52.028;5.526;2023-08-06T14:51:04;21.60;63.70
40289;DHT22;28991;52.028;5.526;2023-08-06T14:53:30;21.60;63.70
40289;DHT22;28991;52.028;5.526;2023-08-06T14:55:56;21.70;63.70
40289;DHT22;28991;52.028;5.526;2023-08-06T14:58:21;21.60;63.70
40289;DHT22;28991;52.028;5.526;2023-08-06T15:00:47;21.60;63.70
40289;DHT22;28991;52.028;5.526;2023-08-06T15:03:12;21.60;63.60
40289;DHT22;28991;52.028;5.526;2023-08-06T15:05:38;21.60;63.60
40289;DHT22;28991;52.028;5.526;2023-08-06T15:08:03;21.60;63.60
40289;DHT22;28991;52.028;5.526;2023-08-06T15:10:29;21.60;63.60
40289;DHT22;28991;52.028;5.526;2023-08-06T15:12:55;21.60;63.60
40289;DHT22;28991;52.028;5.526;2023-08-06T15:15:21;21.40;63.50
40289;DHT22;28991;52.028;5.526;2023-08-06T15:17:47;21.70;63.70
40289;DHT22;28991;52.028;5.526;2023-08-06T15:20:13;21.60;63.60
40289;DHT22;28991;52.028;5.526;2023-08-06T15:22:39;21.60;63.60
40289;DHT22;28991;52.028;5.526;2023-08-06T15:25:05;21.70;63.60
40289;DHT22;28991;52.028;5.526;2023-08-06T15:27:30;21.60;63.60
40289;DHT22;28991;52.028;5.526;2023-08-06T15:29:58;21.70;63.70
40289;DHT22;28991;52.028;5.526;2023-08-06T15:32:23;21.60;63.60
40289;DHT22;28991;52.028;5.526;2023-08-06T15:34:50;21.60;63.60
40289;DHT22;28991;52.028;5.526;2023-08-06T15:37:15;21.60;63.60
40289;DHT22;28991;52.028;5.526;2023-08-06T15:39:41;21.60;63.60
40289;DHT22;28991;52.028;5.526;2023-08-06T15:42:07;21.70;63.60
40289;DHT22;28991;52.028;5.526;2023-08-06T15:44:32;21.70;63.60
40289;DHT22;28991;52.028;5.526;2023-08-06T15:46:58;21.60;63.60